Airfield :
LOGIN :

Register | Disclaimer

   EN    FR    IT 

 










Legend :    VFR   Marginal VFR   IFR   Intensive IFR   Very Intensive IFR
Visi :
Ceiling :
>= 8 km
>= 3000ft
5 to 8 km
1000 to 3000 ft
1500m to 5 km
500 to 1000 ft
800 to 1500m
200 to 500 ft
< 800m
< 200 ft
Symbols :   Thunderstorms  Fog  Heavy snow  Heavy precipitations  Wind > 20 kt
SIGMETs :     Misc.  Thunderstorms  Icing  Turbulence  Mountain Waves  Volcanic Ashes







- Airport Elevation : 268 ft
- IATA code : BFS
- Download approach charts


EGAA - Belfast Aldergrove

CURRENT METAR :
  • 201750Z VRB03KT 9999 OVC011 17/15 Q1018

EXPIRED METARs :
  • 201720Z 06004KT 9999 BKN008 17/15 Q1018
  • 201650Z 05003KT 9999 BKN008 17/15 Q1018
  • 201620Z VRB03KT 9999 BKN007 17/15 Q1018
  • 201550Z 08003KT 9999 SCT005 BKN009 17/15 Q1018
  • 201520Z 07005KT 040V100 9999 SCT004 BKN008 17/15 Q1019

TAF TAF EGAA
Valid from the 20 at 18:00 until the 21 at 18:00 UTC


201654Z 2018/2118 08005KT 9999 BKN007
TEMPO 2018/2020 4000 RADZ
PROB30
TEMPO 2018/2022 SCT007 BKN012
TEMPO 2020/2109 7000 -RADZ
TEMPO 2023/2106 BKN002
PROB40
TEMPO 2023/2106 3000 DZ BR
BECMG 2106/2109 SCT007 BKN012
BECMG 2109/2112 FEW012 SCT016
BECMG 2113/2116 21010KT
No reported NOTAMs for that airfield.



MET'MAP, your aeronautical weather chart ! - Copyright ORBIFLY December 2007 - Disclaimer

ORBIFLY MET'MAP TEAM :

Programming & Development : Alexandra Zaïnal
Concept & Development : Baudouin d'Aumeries
Co-Development & Prog : Marc-Olivier Méhu
Technical & hardware support : Manuel Goepfert

Contact : metmap@orbifly.com




SOURCES & CREDITS :

   NOAA